Time;durP1;ratioP1;P1;durP2;ratioP2;P2;SDS_P1;SDS_P2;PMS_P1;PMS_P2;Temp;Humidity;BMP_temperature;BMP_pressure;BME280_temperature;BME280_humidity;BME280_pressure;Samples;Min_cycle;Max_cycle;Signal;HPM_P1;HPM_P2
2021/12/31 00:03:17;;;;;;;2.05;1.23;;;;;13.20;96847.00;;;;8339923;28;20261;-76
2021/12/31 00:07:20;;;;;;;2.67;1.45;;;;;13.20;96852.00;;;;8350889;28;20250;-76
2021/12/31 00:11:25;;;;;;;1.33;1.33;;;;;13.20;96864.00;;;;8348804;28;20255;-77
2021/12/31 00:15:28;;;;;;;1.40;1.30;;;;;13.20;96853.00;;;;8343255;28;20256;-76
2021/12/31 00:19:32;;;;;;;2.00;1.42;;;;;13.20;96858.00;;;;8336402;28;20659;-75
2021/12/31 00:23:35;;;;;;;2.40;1.40;;;;;13.20;96852.00;;;;8343888;28;20688;-75
2021/12/31 00:27:40;;;;;;;3.22;1.67;;;;;13.20;96851.00;;;;8341179;28;20274;-76
2021/12/31 00:31:43;;;;;;;2.45;1.30;;;;;13.20;96864.00;;;;8345243;28;20628;-75
2021/12/31 00:35:46;;;;;;;2.90;1.50;;;;;13.20;96867.00;;;;8335831;28;20692;-75
2021/12/31 00:39:49;;;;;;;2.08;1.33;;;;;13.20;96858.00;;;;8340866;28;20312;-75
2021/12/31 00:43:54;;;;;;;5.45;1.60;;;;;13.30;96871.00;;;;8343283;28;20310;-74
2021/12/31 00:47:57;;;;;;;1.40;1.30;;;;;13.30;96872.00;;;;8338080;28;20327;-75
2021/12/31 00:52:02;;;;;;;2.38;1.38;;;;;13.30;96874.00;;;;8336809;28;20243;-76
2021/12/31 00:56:06;;;;;;;1.40;1.20;;;;;13.30;96875.00;;;;8342339;28;20311;-76
2021/12/31 01:00:14;;;;;;;3.78;1.40;;;;;13.30;96873.00;;;;8341447;28;20627;-75
2021/12/31 01:04:17;;;;;;;2.85;1.45;;;;;13.30;96874.00;;;;8342904;28;20313;-76
2021/12/31 01:08:20;;;;;;;2.25;1.73;;;;;13.20;96867.00;;;;8337379;28;20300;-76
2021/12/31 01:12:25;;;;;;;5.65;1.67;;;;;13.20;96871.00;;;;8347388;28;20314;-77
2021/12/31 01:16:38;;;;;;;3.65;1.50;;;;;13.20;96882.00;;;;8342060;28;20263;-77
2021/12/31 01:20:41;;;;;;;2.40;1.38;;;;;13.20;96885.00;;;;8341484;28;20320;-77
2021/12/31 01:24:44;;;;;;;2.65;1.40;;;;;13.20;96882.00;;;;8334323;28;20235;-75
2021/12/31 01:28:47;;;;;;;1.98;1.60;;;;;13.20;96898.00;;;;8340120;28;21070;-76
2021/12/31 01:32:55;;;;;;;1.38;1.27;;;;;13.20;96885.00;;;;8345987;28;20224;-75
2021/12/31 01:36:59;;;;;;;3.30;1.50;;;;;13.20;96886.00;;;;8344060;28;20259;-75
2021/12/31 01:41:03;;;;;;;1.40;1.30;;;;;13.20;96890.00;;;;8346192;28;20744;-76
2021/12/31 01:45:11;;;;;;;2.50;1.10;;;;;13.20;96897.00;;;;8348336;28;20263;-76
2021/12/31 01:49:20;;;;;;;2.17;1.27;;;;;13.10;96898.00;;;;8335401;28;20224;-77
2021/12/31 01:53:25;;;;;;;4.18;1.48;;;;;13.10;96899.00;;;;8336842;28;20311;-76
2021/12/31 01:57:30;;;;;;;2.97;1.45;;;;;13.10;96899.00;;;;8344182;28;20243;-77
2021/12/31 02:01:35;;;;;;;6.22;1.27;;;;;13.20;96890.00;;;;8341365;28;20226;-77
2021/12/31 02:05:40;;;;;;;3.45;1.17;;;;;13.10;96887.00;;;;8335119;28;20312;-76
2021/12/31 02:09:48;;;;;;;4.78;1.40;;;;;13.10;96881.00;;;;8341922;28;20322;-76
2021/12/31 02:13:53;;;;;;;1.27;1.23;;;;;13.10;96882.00;;;;8335288;28;20965;-76
2021/12/31 02:18:00;;;;;;;3.58;1.70;;;;;13.10;96881.00;;;;8339649;28;20246;-76
2021/12/31 02:22:05;;;;;;;1.85;1.23;;;;;13.10;96875.00;;;;8342683;28;20302;-76
2021/12/31 02:26:10;;;;;;;3.92;1.40;;;;;13.00;96882.00;;;;8336164;28;20319;-74
2021/12/31 02:30:14;;;;;;;3.13;1.23;;;;;12.90;96885.00;;;;8333185;28;20667;-75
2021/12/31 02:34:17;;;;;;;1.40;1.30;;;;;12.90;96882.00;;;;8348422;28;20637;-75
2021/12/31 02:38:21;;;;;;;4.43;1.40;;;;;12.90;96891.00;;;;8344630;28;20593;-75
2021/12/31 02:42:25;;;;;;;2.15;1.30;;;;;12.90;96885.00;;;;8333704;28;20263;-75
2021/12/31 02:46:28;;;;;;;1.40;1.30;;;;;12.90;96878.00;;;;8340599;28;20246;-75
2021/12/31 02:50:34;;;;;;;1.40;1.30;;;;;12.90;96877.00;;;;8331478;28;20255;-74
2021/12/31 02:54:43;;;;;;;7.30;1.67;;;;;12.90;96875.00;;;;8338148;28;21403;-75
2021/12/31 02:58:46;;;;;;;1.65;1.55;;;;;12.90;96872.00;;;;8350607;28;20251;-75
2021/12/31 03:02:51;;;;;;;1.52;1.30;;;;;13.00;96860.00;;;;8347685;22;20235;-76
2021/12/31 03:06:54;;;;;;;1.40;1.40;;;;;13.00;96869.00;;;;8272249;28;20252;-74
2021/12/31 03:11:02;;;;;;;2.17;2.08;;;;;13.00;96861.00;;;;8280536;28;20273;-74
2021/12/31 03:15:06;;;;;;;1.40;1.30;;;;;13.00;96855.00;;;;8278101;28;20320;-75
2021/12/31 03:19:09;;;;;;;1.33;1.23;;;;;13.00;96852.00;;;;8280558;28;20255;-75
2021/12/31 03:23:15;;;;;;;1.63;1.33;;;;;13.00;96850.00;;;;8279746;28;20342;-75
2021/12/31 03:27:19;;;;;;;1.38;1.10;;;;;13.00;96850.00;;;;8279680;28;20327;-75
2021/12/31 03:31:23;;;;;;;4.82;1.30;;;;;13.00;96839.00;;;;8269203;28;20317;-75
2021/12/31 03:35:30;;;;;;;1.63;1.38;;;;;13.00;96837.00;;;;8271148;28;20244;-75
2021/12/31 03:39:33;;;;;;;1.33;1.23;;;;;13.00;96840.00;;;;8281929;28;20753;-75
2021/12/31 03:43:38;;;;;;;8.30;1.38;;;;;13.00;96853.00;;;;8266947;28;20252;-75
2021/12/31 03:47:41;;;;;;;1.30;1.23;;;;;13.10;96841.00;;;;8277421;28;20713;-75
2021/12/31 03:51:44;;;;;;;3.78;1.20;;;;;13.10;96849.00;;;;8268131;28;20668;-76
2021/12/31 03:55:48;;;;;;;5.55;1.33;;;;;13.10;96846.00;;;;8276552;28;20238;-76
2021/12/31 03:59:54;;;;;;;1.58;1.45;;;;;13.10;96840.00;;;;8287179;28;21013;-76
2021/12/31 04:03:57;;;;;;;1.02;0.98;;;;;13.10;96848.00;;;;8278263;28;20353;-76
2021/12/31 04:08:01;;;;;;;1.38;1.20;;;;;13.10;96846.00;;;;8283562;28;20317;-77
2021/12/31 04:12:05;;;;;;;1.65;1.20;;;;;13.20;96841.00;;;;8276877;28;20260;-76
2021/12/31 04:16:10;;;;;;;1.63;0.98;;;;;13.20;96842.00;;;;8279708;28;20765;-76
2021/12/31 04:20:19;;;;;;;1.77;1.20;;;;;13.20;96845.00;;;;8298300;28;20225;-77
2021/12/31 04:24:30;;;;;;;1.02;1.02;;;;;13.20;96845.00;;;;8281563;28;20674;-73
2021/12/31 04:28:33;;;;;;;1.25;1.15;;;;;13.20;96849.00;;;;8287296;28;20317;-76
2021/12/31 04:32:39;;;;;;;1.30;1.20;;;;;13.20;96850.00;;;;8279521;28;20282;-75
2021/12/31 04:36:42;;;;;;;2.45;1.25;;;;;13.20;96846.00;;;;8288277;28;20267;-75
2021/12/31 04:40:45;;;;;;;1.33;1.23;;;;;13.20;96858.00;;;;8285660;28;20768;-74
2021/12/31 04:44:48;;;;;;;1.33;1.23;;;;;13.20;96855.00;;;;8282343;28;20328;-73
2021/12/31 04:48:53;;;;;;;2.15;1.05;;;;;13.20;96858.00;;;;8281230;28;20256;-75
2021/12/31 04:52:56;;;;;;;1.00;1.00;;;;;13.20;96867.00;;;;8286054;28;21094;-76
2021/12/31 04:57:00;;;;;;;1.23;1.20;;;;;13.20;96869.00;;;;8278217;28;20332;-75
2021/12/31 05:01:03;;;;;;;1.80;1.15;;;;;13.20;96871.00;;;;8285879;28;20315;-76
2021/12/31 05:05:09;;;;;;;1.02;1.02;;;;;13.20;96870.00;;;;8271820;28;20229;-76
2021/12/31 05:09:12;;;;;;;3.65;1.52;;;;;13.20;96869.00;;;;8281295;28;20225;-76
2021/12/31 05:13:16;;;;;;;1.00;1.00;;;;;13.20;96864.00;;;;8287162;28;20639;-76
2021/12/31 05:17:19;;;;;;;1.33;1.05;;;;;13.10;96870.00;;;;8275937;28;20284;-76
2021/12/31 05:21:24;;;;;;;1.33;1.20;;;;;13.10;96861.00;;;;8280258;28;20598;-75
2021/12/31 05:25:27;;;;;;;1.92;1.13;;;;;13.10;96864.00;;;;8265434;28;20323;-75
2021/12/31 05:29:30;;;;;;;1.42;1.33;;;;;13.10;96871.00;;;;8281497;28;20234;-75
2021/12/31 05:33:33;;;;;;;2.40;1.20;;;;;13.10;96868.00;;;;8276992;28;20297;-77
2021/12/31 05:37:38;;;;;;;1.00;1.00;;;;;13.10;96868.00;;;;8284431;28;20280;-76
2021/12/31 05:41:41;;;;;;;1.75;0.90;;;;;13.10;96876.00;;;;8277204;28;20837;-76
2021/12/31 05:45:44;;;;;;;1.77;0.90;;;;;13.10;96871.00;;;;8279651;28;20397;-77
2021/12/31 05:49:58;;;;;;;1.65;1.35;;;;;13.10;96875.00;;;;8281919;28;20321;-73
2021/12/31 05:54:04;;;;;;;2.45;1.45;;;;;13.00;96881.00;;;;8283962;28;20232;-74
2021/12/31 05:58:07;;;;;;;1.17;1.17;;;;;13.00;96878.00;;;;8289344;28;20332;-74
2021/12/31 06:02:10;;;;;;;1.13;1.13;;;;;13.00;96876.00;;;;8282337;28;20343;-74
2021/12/31 06:06:14;;;;;;;1.48;1.00;;;;;13.00;96875.00;;;;8275626;28;20222;-74
2021/12/31 06:10:19;;;;;;;1.60;1.50;;;;;13.00;96880.00;;;;8279484;28;20686;-74
2021/12/31 06:14:22;;;;;;;1.33;1.23;;;;;13.00;96871.00;;;;8269902;28;20328;-74
2021/12/31 06:18:26;;;;;;;1.77;1.20;;;;;13.00;96874.00;;;;8271463;28;20239;-74
2021/12/31 06:22:31;;;;;;;1.20;1.20;;;;;13.00;96879.00;;;;8264467;28;20231;-75
2021/12/31 06:26:38;;;;;;;1.75;1.67;;;;;13.00;96877.00;;;;8266502;28;20664;-74
2021/12/31 06:30:42;;;;;;;1.63;1.30;;;;;13.00;96878.00;;;;8271828;28;20671;-73
2021/12/31 06:34:45;;;;;;;2.15;1.35;;;;;13.00;96877.00;;;;8280440;28;20236;-74
2021/12/31 06:38:49;;;;;;;1.20;1.20;;;;;12.90;96878.00;;;;8270071;28;20672;-74
2021/12/31 06:42:54;;;;;;;1.95;1.27;;;;;12.90;96876.00;;;;8271467;28;20812;-76
2021/12/31 06:46:57;;;;;;;1.45;1.35;;;;;13.00;96872.00;;;;8269950;28;20297;-76
2021/12/31 06:51:01;;;;;;;1.40;1.27;;;;;13.00;96872.00;;;;8266926;28;20237;-74
2021/12/31 06:55:05;;;;;;;1.40;1.30;;;;;13.00;96875.00;;;;8279766;28;20264;-76
2021/12/31 06:59:09;;;;;;;2.72;1.38;;;;;12.90;96872.00;;;;8273882;28;20657;-76
2021/12/31 07:03:14;;;;;;;2.30;2.20;;;;;12.90;96871.00;;;;8272411;28;20236;-74
2021/12/31 07:07:17;;;;;;;1.90;1.80;;;;;12.90;96871.00;;;;8283023;28;20262;-73
2021/12/31 07:11:22;;;;;;;1.58;1.40;;;;;12.90;96876.00;;;;8282696;28;20312;-74
2021/12/31 07:15:26;;;;;;;1.35;1.33;;;;;12.90;96880.00;;;;8278766;28;20316;-74
2021/12/31 07:19:30;;;;;;;1.55;1.45;;;;;12.90;96880.00;;;;8282286;28;20875;-73
2021/12/31 07:23:33;;;;;;;2.53;1.23;;;;;12.90;96878.00;;;;8272558;28;20264;-75
2021/12/31 07:27:36;;;;;;;2.20;1.60;;;;;12.80;96876.00;;;;8273374;28;20308;-74
2021/12/31 07:31:41;;;;;;;1.42;1.33;;;;;12.70;96876.00;;;;8268882;28;20319;-74
2021/12/31 07:35:45;;;;;;;1.65;1.55;;;;;12.70;96880.00;;;;8273641;28;20319;-74
2021/12/31 07:39:48;;;;;;;3.85;2.10;;;;;12.70;96880.00;;;;8267130;28;20229;-75
2021/12/31 07:43:52;;;;;;;4.05;1.90;;;;;12.80;96882.00;;;;8283861;28;20230;-74
2021/12/31 07:47:56;;;;;;;1.55;1.45;;;;;12.80;96898.00;;;;8278366;28;20319;-75
2021/12/31 07:51:59;;;;;;;1.63;1.52;;;;;12.80;96889.00;;;;8268981;28;20316;-75
2021/12/31 07:56:03;;;;;;;2.65;1.55;;;;;12.70;96898.00;;;;8278574;28;20260;-75
2021/12/31 08:00:08;;;;;;;3.55;1.88;;;;;12.60;96900.00;;;;8277736;28;20319;-76
2021/12/31 08:04:12;;;;;;;3.03;1.80;;;;;12.50;96891.00;;;;8284519;28;20636;-75
2021/12/31 08:08:17;;;;;;;4.90;3.97;;;;;12.40;96885.00;;;;8284646;28;20694;-76
2021/12/31 08:12:20;;;;;;;2.67;2.10;;;;;12.20;96892.00;;;;8278711;28;20298;-76
2021/12/31 08:16:24;;;;;;;2.53;2.33;;;;;12.20;96894.00;;;;8276030;28;20709;-74
2021/12/31 08:20:29;;;;;;;2.25;1.83;;;;;12.20;96887.00;;;;8272131;28;20226;-74
2021/12/31 08:24:32;;;;;;;2.95;1.88;;;;;12.20;96881.00;;;;8279453;28;21021;-76
2021/12/31 08:28:35;;;;;;;2.03;1.90;;;;;12.20;96890.00;;;;8277110;28;21599;-75
2021/12/31 08:32:39;;;;;;;1.80;1.70;;;;;12.30;96894.00;;;;8273869;28;20230;-76
2021/12/31 08:36:44;;;;;;;3.45;1.80;;;;;12.30;96911.00;;;;8283350;28;20324;-75
2021/12/31 08:40:47;;;;;;;2.00;1.80;;;;;12.40;96909.00;;;;8283551;28;20237;-75
2021/12/31 08:44:50;;;;;;;4.55;1.77;;;;;12.50;96910.00;;;;8276206;28;20256;-74
2021/12/31 08:48:54;;;;;;;2.17;2.00;;;;;12.50;96914.00;;;;8258822;28;20233;-78
2021/12/31 08:52:59;;;;;;;2.55;1.55;;;;;12.60;96894.00;;;;8271650;28;20238;-75
2021/12/31 08:57:02;;;;;;;1.98;1.80;;;;;12.70;96898.00;;;;8273470;28;20226;-76
2021/12/31 09:01:05;;;;;;;2.55;1.70;;;;;12.80;96899.00;;;;8278364;28;20312;-76
2021/12/31 09:05:09;;;;;;;1.80;1.70;;;;;12.80;96895.00;;;;8277572;28;20226;-73
2021/12/31 09:09:14;;;;;;;4.70;1.90;;;;;12.80;96896.00;;;;8276079;28;20719;-74
2021/12/31 09:13:17;;;;;;;2.17;2.05;;;;;12.80;96902.00;;;;8277303;28;20913;-76
2021/12/31 09:17:22;;;;;;;1.95;1.75;;;;;12.90;96903.00;;;;8274227;28;20253;-75
2021/12/31 09:21:25;;;;;;;2.33;1.88;;;;;13.00;96902.00;;;;8282418;28;20249;-74
2021/12/31 09:25:30;;;;;;;1.70;1.60;;;;;13.20;96899.00;;;;8274103;28;20325;-77
2021/12/31 09:29:35;;;;;;;1.55;1.45;;;;;13.20;96899.00;;;;8274503;28;20241;-78
2021/12/31 09:33:38;;;;;;;3.72;1.77;;;;;13.30;96895.00;;;;8268301;28;21372;-77
2021/12/31 09:37:41;;;;;;;1.80;1.70;;;;;13.40;96903.00;;;;8274031;28;20372;-75
2021/12/31 09:41:46;;;;;;;3.00;1.92;;;;;13.50;96898.00;;;;8274843;28;20308;-74
2021/12/31 09:45:52;;;;;;;1.92;1.75;;;;;13.50;96916.00;;;;8267381;28;20261;-74
2021/12/31 09:49:55;;;;;;;1.80;1.70;;;;;13.60;96907.00;;;;8278976;28;20620;-74
2021/12/31 09:53:59;;;;;;;2.55;1.65;;;;;13.50;96904.00;;;;8274596;28;20233;-74
2021/12/31 09:58:04;;;;;;;4.35;2.42;;;;;13.60;96908.00;;;;8267890;28;20234;-75
2021/12/31 10:02:12;;;;;;;1.88;1.60;;;;;13.80;96902.00;;;;8278471;28;20272;-76
2021/12/31 10:06:16;;;;;;;3.88;1.80;;;;;13.80;96899.00;;;;8276394;28;20217;-75
2021/12/31 10:10:22;;;;;;;3.58;1.60;;;;;13.90;96899.00;;;;8274682;28;20246;-75
2021/12/31 10:14:36;;;;;;;3.65;1.90;;;;;14.00;96892.00;;;;8278325;28;20644;-76
2021/12/31 10:18:39;;;;;;;2.00;1.75;;;;;14.20;96874.00;;;;8275154;28;20230;-79
2021/12/31 10:27:19;;;;;;;2.00;1.60;;;;;14.40;96863.00;;;;8274559;28;20309;-76
2021/12/31 10:31:24;;;;;;;6.57;1.58;;;;;14.30;96874.00;;;;8273386;28;20234;-74
2021/12/31 10:35:28;;;;;;;4.10;1.38;;;;;14.40;96865.00;;;;8276987;28;20226;-75
2021/12/31 10:39:37;;;;;;;1.67;1.58;;;;;14.40;96860.00;;;;8259811;28;21659;-77
2021/12/31 10:43:41;;;;;;;2.97;1.40;;;;;14.40;96860.00;;;;8269745;28;20240;-74
2021/12/31 10:47:49;;;;;;;1.60;1.50;;;;;14.50;96860.00;;;;8273103;28;20257;-75
2021/12/31 10:51:52;;;;;;;2.97;1.92;;;;;14.50;96857.00;;;;8268216;28;20663;-73
2021/12/31 10:56:05;;;;;;;6.72;2.75;;;;;14.60;96843.00;;;;8266467;28;20353;-75
2021/12/31 11:00:11;;;;;;;6.20;1.90;;;;;14.60;96852.00;;;;8270372;28;20316;-77
2021/12/31 11:04:16;;;;;;;1.65;1.50;;;;;14.60;96851.00;;;;8268662;28;20266;-75
2021/12/31 11:08:20;;;;;;;3.55;1.60;;;;;14.70;96859.00;;;;8264084;28;20703;-73
2021/12/31 11:12:24;;;;;;;2.33;2.13;;;;;14.80;96848.00;;;;8262572;28;20258;-74
2021/12/31 11:16:27;;;;;;;1.60;1.50;;;;;14.80;96847.00;;;;8260496;28;20330;-75
2021/12/31 11:20:33;;;;;;;3.85;1.73;;;;;14.90;96842.00;;;;8265069;28;21064;-75
2021/12/31 11:24:38;;;;;;;3.42;1.70;;;;;14.90;96839.00;;;;8261682;28;20237;-75
2021/12/31 11:28:44;;;;;;;1.58;1.48;;;;;14.90;96840.00;;;;8261633;28;20226;-75
2021/12/31 11:32:56;;;;;;;1.30;1.20;;;;;14.90;96822.00;;;;8263455;28;20226;-76
2021/12/31 11:37:02;;;;;;;1.52;1.20;;;;;15.10;96807.00;;;;8268054;28;20305;-76
2021/12/31 11:41:08;;;;;;;1.40;1.35;;;;;15.20;96806.00;;;;8258455;28;20334;-76
2021/12/31 11:45:13;;;;;;;1.75;1.48;;;;;15.30;96803.00;;;;8267606;28;22115;-76
2021/12/31 11:49:22;;;;;;;2.03;1.52;;;;;15.30;96798.00;;;;8272412;28;20265;-76
2021/12/31 11:53:27;;;;;;;1.58;1.30;;;;;15.40;96802.00;;;;8254375;28;20754;-76
2021/12/31 11:57:31;;;;;;;1.50;1.40;;;;;15.50;96803.00;;;;8273962;28;20321;-76
2021/12/31 12:01:43;;;;;;;2.15;1.98;;;;;15.70;96789.00;;;;8264180;28;20404;-76
2021/12/31 12:05:46;;;;;;;3.70;2.35;;;;;15.90;96789.00;;;;8266290;28;20242;-76
2021/12/31 12:10:11;;;;;;;3.08;2.72;;;;;16.10;96797.00;;;;8259108;28;20262;-76
2021/12/31 12:14:40;;;;;;;6.63;2.75;;;;;16.00;96792.00;;;;8269519;28;20218;-77
2021/12/31 12:18:56;;;;;;;2.65;2.47;;;;;16.10;96788.00;;;;8259042;28;20273;-76
2021/12/31 12:22:59;;;;;;;2.83;2.28;;;;;16.00;96800.00;;;;8278244;28;20257;-77
2021/12/31 12:27:04;;;;;;;2.97;2.55;;;;;15.80;96810.00;;;;8276806;28;20841;-76
2021/12/31 12:31:17;;;;;;;3.45;2.72;;;;;15.60;96803.00;;;;8283915;28;20304;-76
2021/12/31 12:35:22;;;;;;;4.20;2.80;;;;;15.50;96792.00;;;;8281825;28;20248;-76
2021/12/31 12:39:25;;;;;;;5.47;3.40;;;;;15.40;96799.00;;;;8269334;28;20264;-77
2021/12/31 12:43:33;;;;;;;3.17;2.88;;;;;15.40;96788.00;;;;8269484;28;20809;-77
2021/12/31 12:47:36;;;;;;;5.15;2.97;;;;;15.50;96792.00;;;;8269364;28;20256;-77
2021/12/31 12:51:42;;;;;;;4.75;3.25;;;;;15.40;96787.00;;;;8268226;28;20866;-75
2021/12/31 12:55:46;;;;;;;4.53;3.33;;;;;15.30;96785.00;;;;8268814;28;21917;-75
2021/12/31 12:59:51;;;;;;;3.78;3.35;;;;;15.20;96788.00;;;;8263590;28;20317;-75
2021/12/31 13:03:56;;;;;;;4.88;3.70;;;;;15.30;96795.00;;;;8270938;28;20234;-77
2021/12/31 13:07:59;;;;;;;7.32;3.97;;;;;15.00;96798.00;;;;8267385;28;20340;-76
2021/12/31 13:12:04;;;;;;;3.72;3.10;;;;;14.90;96797.00;;;;8265259;28;20658;-76
2021/12/31 13:16:14;;;;;;;5.93;3.65;;;;;14.80;96791.00;;;;8270630;28;20588;-76
2021/12/31 13:20:26;;;;;;;3.33;3.03;;;;;14.70;96778.00;;;;8264279;28;20664;-78
2021/12/31 13:24:29;;;;;;;6.38;3.88;;;;;14.60;96783.00;;;;8266106;28;20309;-79
2021/12/31 13:28:41;;;;;;;5.65;3.97;;;;;14.60;96781.00;;;;8270973;28;20865;-79
2021/12/31 13:32:47;;;;;;;5.90;4.13;;;;;14.60;96800.00;;;;8268306;28;20647;-78
2021/12/31 13:36:51;;;;;;;4.85;3.97;;;;;14.60;96811.00;;;;8266744;28;20632;-77
2021/12/31 13:41:05;;;;;;;5.20;4.25;;;;;14.50;96814.00;;;;8263757;28;20233;-79
2021/12/31 13:45:19;;;;;;;5.57;4.15;;;;;14.40;96823.00;;;;8269158;28;20773;-80
2021/12/31 13:49:25;;;;;;;5.15;4.18;;;;;14.40;96827.00;;;;8270547;28;20227;-79
2021/12/31 13:53:29;;;;;;;7.60;4.60;;;;;14.40;96832.00;;;;8264733;28;20258;-78
2021/12/31 13:57:33;;;;;;;6.10;4.40;;;;;14.30;96820.00;;;;8268738;28;20297;-80
2021/12/31 14:01:37;;;;;;;6.60;4.47;;;;;14.40;96817.00;;;;8269235;28;20313;-78
2021/12/31 14:05:49;;;;;;;7.70;4.80;;;;;14.40;96791.00;;;;8274760;28;20579;-76
2021/12/31 14:09:52;;;;;;;6.05;4.55;;;;;14.30;96784.00;;;;8273575;28;20268;-71
2021/12/31 14:13:56;;;;;;;7.65;4.90;;;;;14.20;96755.00;;;;8273347;28;20297;-77
2021/12/31 14:18:00;;;;;;;6.00;4.35;;;;;14.10;96746.00;;;;8274904;28;20226;-77
2021/12/31 14:22:05;;;;;;;8.05;4.60;;;;;14.00;96742.00;;;;8265306;28;20225;-77
2021/12/31 14:26:09;;;;;;;6.63;4.32;;;;;14.00;96722.00;;;;8265164;28;20258;-78
2021/12/31 14:30:12;;;;;;;5.13;4.28;;;;;13.90;96713.00;;;;8262941;28;20248;-84
2021/12/31 14:34:16;;;;;;;5.05;4.32;;;;;13.70;96709.00;;;;8265237;28;20218;-76
2021/12/31 14:38:23;;;;;;;5.18;4.30;;;;;13.60;96700.00;;;;8266005;28;20347;-77
2021/12/31 14:42:29;;;;;;;8.68;6.35;;;;;13.40;96708.00;;;;8262773;28;20679;-79
2021/12/31 14:46:34;;;;;;;8.50;4.68;;;;;13.30;96714.00;;;;8269279;28;20802;-77
2021/12/31 14:50:38;;;;;;;9.73;5.45;;;;;13.20;96732.00;;;;8264747;28;20349;-79
2021/12/31 14:54:43;;;;;;;9.15;5.72;;;;;13.00;96731.00;;;;8263410;28;20316;-79
2021/12/31 14:58:49;;;;;;;7.82;5.60;;;;;12.90;96712.00;;;;8263070;28;20226;-80
2021/12/31 15:02:52;;;;;;;9.82;5.70;;;;;12.70;96709.00;;;;8267589;28;20276;-79
2021/12/31 15:06:55;;;;;;;8.80;6.28;;;;;12.60;96713.00;;;;8257319;28;20233;-80
2021/12/31 15:11:00;;;;;;;9.38;6.20;;;;;12.50;96716.00;;;;8263941;28;20269;-78
2021/12/31 15:15:03;;;;;;;12.57;6.10;;;;;12.50;96719.00;;;;8263602;28;20242;-76
2021/12/31 15:19:07;;;;;;;10.57;6.13;;;;;12.40;96726.00;;;;8266558;28;20312;-76
2021/12/31 15:23:13;;;;;;;9.80;6.18;;;;;12.30;96740.00;;;;8264847;28;20311;-77
2021/12/31 15:27:18;;;;;;;13.68;7.82;;;;;12.30;96730.00;;;;8264520;28;20253;-77
2021/12/31 15:31:21;;;;;;;10.63;6.78;;;;;12.20;96743.00;;;;8262155;28;20320;-77
2021/12/31 15:35:24;;;;;;;6.78;5.30;;;;;12.20;96739.00;;;;8263673;28;20221;-77
2021/12/31 15:39:29;;;;;;;9.68;5.68;;;;;12.10;96743.00;;;;8265577;28;20242;-77
2021/12/31 15:43:34;;;;;;;7.25;5.25;;;;;12.10;96754.00;;;;8264780;28;20583;-77
2021/12/31 15:47:37;;;;;;;11.60;5.40;;;;;12.00;96720.00;;;;8266312;28;20237;-76
2021/12/31 15:51:40;;;;;;;10.30;6.22;;;;;12.00;96719.00;;;;8265413;28;20260;-77
2021/12/31 15:55:44;;;;;;;11.55;6.20;;;;;12.00;96711.00;;;;8267114;28;20318;-75
2021/12/31 15:59:50;;;;;;;8.38;5.68;;;;;12.00;96679.00;;;;8264707;28;20228;-75
2021/12/31 16:04:02;;;;;;;8.35;5.88;;;;;12.00;96694.00;;;;8265556;28;20276;-76
2021/12/31 16:08:21;;;;;;;13.95;6.70;;;;;11.90;96709.00;;;;8273275;28;20238;-76
2021/12/31 16:12:25;;;;;;;10.02;6.78;;;;;11.70;96701.00;;;;8275367;28;20221;-76
2021/12/31 16:16:45;;;;;;;13.73;8.00;;;;;11.60;96699.00;;;;8274274;28;20223;-77
2021/12/31 16:20:48;;;;;;;15.15;7.72;;;;;11.60;96724.00;;;;8275143;28;20272;-77
2021/12/31 16:24:51;;;;;;;16.77;9.25;;;;;11.60;96729.00;;;;8280358;28;20266;-77
2021/12/31 16:29:15;;;;;;;19.15;10.88;;;;;11.50;96739.00;;;;8268849;28;20614;-77
2021/12/31 16:33:19;;;;;;;59.08;32.20;;;;;11.50;96728.00;;;;8268984;28;20313;-80
2021/12/31 16:37:23;;;;;;;18.58;11.85;;;;;11.40;96732.00;;;;8274298;28;20321;-77
2021/12/31 16:41:28;;;;;;;13.77;10.18;;;;;11.30;96728.00;;;;8273807;28;20260;-75
2021/12/31 16:45:32;;;;;;;15.93;7.90;;;;;11.20;96725.00;;;;8272365;28;20265;-77
2021/12/31 16:49:37;;;;;;;14.18;7.90;;;;;11.10;96715.00;;;;8269108;28;20265;-75
2021/12/31 16:53:41;;;;;;;10.77;6.32;;;;;10.90;96720.00;;;;8265950;28;20242;-76
2021/12/31 16:57:44;;;;;;;12.02;7.78;;;;;10.80;96728.00;;;;8268443;28;20306;-76
2021/12/31 17:01:48;;;;;;;19.98;11.10;;;;;10.60;96740.00;;;;8266257;28;20234;-77
2021/12/31 17:05:53;;;;;;;12.82;7.82;;;;;10.40;96743.00;;;;8270241;28;20285;-76
2021/12/31 17:09:56;;;;;;;14.60;8.48;;;;;10.40;96731.00;;;;8270457;28;20249;-76
2021/12/31 17:13:59;;;;;;;15.00;8.93;;;;;10.30;96741.00;;;;8267300;28;20265;-76
2021/12/31 17:18:04;;;;;;;14.98;8.95;;;;;10.20;96734.00;;;;8263565;28;20232;-76
2021/12/31 17:22:09;;;;;;;17.63;10.48;;;;;10.20;96741.00;;;;8262838;28;21143;-76
2021/12/31 17:26:12;;;;;;;15.13;8.45;;;;;10.10;96747.00;;;;8270841;28;20257;-76
2021/12/31 17:30:16;;;;;;;14.50;8.05;;;;;9.90;96743.00;;;;8264084;28;20222;-76
2021/12/31 17:34:19;;;;;;;13.73;7.82;;;;;9.90;96753.00;;;;8263056;28;20675;-76
2021/12/31 17:38:40;;;;;;;85.95;8.80;;;;;9.80;96757.00;;;;8267990;28;20229;-76
2021/12/31 17:42:46;;;;;;;70.32;9.10;;;;;9.60;96755.00;;;;8269410;28;20233;-75
2021/12/31 17:46:49;;;;;;;81.45;9.02;;;;;9.50;96762.00;;;;8263265;28;20656;-76
2021/12/31 17:50:52;;;;;;;47.35;7.75;;;;;9.40;96765.00;;;;8268037;28;20236;-75
2021/12/31 17:54:57;;;;;;;18.55;7.68;;;;;9.30;96765.00;;;;8267910;28;20222;-77
2021/12/31 17:59:00;;;;;;;16.73;8.68;;;;;9.20;96763.00;;;;8261493;28;20356;-76
2021/12/31 18:03:04;;;;;;;300.98;16.10;;;;;9.20;96767.00;;;;8272282;28;20328;-77
2021/12/31 18:07:08;;;;;;;174.10;14.57;;;;;9.10;96776.00;;;;8275313;28;20225;-76
2021/12/31 18:11:13;;;;;;;183.18;11.88;;;;;9.10;96786.00;;;;8279958;28;20671;-76
2021/12/31 18:15:16;;;;;;;135.77;12.50;;;;;9.00;96778.00;;;;8273315;28;20316;-77
2021/12/31 18:19:20;;;;;;;259.63;18.33;;;;;8.90;96778.00;;;;8278342;28;20293;-77
2021/12/31 18:23:23;;;;;;;151.03;13.60;;;;;8.90;96779.00;;;;8280356;28;20738;-76
2021/12/31 18:27:28;;;;;;;170.10;15.60;;;;;8.90;96769.00;;;;8278999;28;20313;-76
2021/12/31 18:31:32;;;;;;;210.50;16.93;;;;;8.80;96758.00;;;;8271112;28;20297;-76
2021/12/31 18:35:35;;;;;;;105.20;13.57;;;;;8.70;96768.00;;;;8275824;28;20265;-76
2021/12/31 18:39:38;;;;;;;245.25;19.27;;;;;8.60;96767.00;;;;8274358;28;20265;-76
2021/12/31 18:43:43;;;;;;;43.47;11.95;;;;;8.60;96752.00;;;;8271276;28;20686;-75
2021/12/31 18:47:51;;;;;;;181.52;16.13;;;;;8.50;96762.00;;;;8268867;28;20317;-75
2021/12/31 18:51:55;;;;;;;64.70;11.27;;;;;8.50;96768.00;;;;8270174;28;20260;-76
2021/12/31 18:55:58;;;;;;;18.45;9.27;;;;;8.50;96760.00;;;;8277409;28;20240;-76
2021/12/31 19:00:03;;;;;;;16.87;9.13;;;;;8.50;96772.00;;;;8270290;28;20367;-76
2021/12/31 19:04:07;;;;;;;19.00;9.27;;;;;8.50;96783.00;;;;8271238;28;20265;-76
2021/12/31 19:08:10;;;;;;;17.48;8.70;;;;;8.70;96783.00;;;;8271112;28;20237;-76
2021/12/31 19:12:13;;;;;;;13.32;8.23;;;;;8.90;96776.00;;;;8273789;28;20253;-76
2021/12/31 19:16:24;;;;;;;20.08;9.85;;;;;9.10;96775.00;;;;8267511;28;20238;-76
2021/12/31 19:20:27;;;;;;;16.93;8.83;;;;;9.30;96774.00;;;;8267637;28;20229;-76
2021/12/31 19:24:30;;;;;;;17.60;8.73;;;;;9.40;96782.00;;;;8271973;28;20229;-77
2021/12/31 19:28:34;;;;;;;18.05;8.15;;;;;9.50;96803.00;;;;8269188;28;20219;-77
2021/12/31 19:32:39;;;;;;;18.50;8.48;;;;;9.60;96817.00;;;;8269906;28;20702;-77
2021/12/31 19:36:43;;;;;;;14.52;7.78;;;;;9.80;96847.00;;;;8266965;28;20249;-76
2021/12/31 19:40:47;;;;;;;14.73;7.68;;;;;9.90;96839.00;;;;8275771;28;20647;-76
2021/12/31 19:44:50;;;;;;;15.43;7.55;;;;;10.00;96836.00;;;;8277157;28;20274;-76
2021/12/31 19:48:55;;;;;;;15.40;7.53;;;;;10.10;96846.00;;;;8280385;28;21047;-76
2021/12/31 19:52:58;;;;;;;13.73;6.65;;;;;10.10;96853.00;;;;8269685;28;20742;-76
2021/12/31 19:57:01;;;;;;;16.83;6.80;;;;;10.20;96871.00;;;;8277163;28;20229;-77
2021/12/31 20:01:05;;;;;;;13.98;6.07;;;;;10.30;96879.00;;;;8278893;28;20835;-77
2021/12/31 20:05:10;;;;;;;14.23;6.55;;;;;10.30;96873.00;;;;8278842;28;20635;-77
2021/12/31 20:09:13;;;;;;;16.55;6.40;;;;;10.30;96881.00;;;;8280420;28;20337;-78
2021/12/31 20:13:17;;;;;;;11.90;6.10;;;;;10.20;96883.00;;;;8281539;28;20249;-78
2021/12/31 20:17:20;;;;;;;10.35;5.35;;;;;10.20;96893.00;;;;8274274;28;21021;-78
2021/12/31 20:21:25;;;;;;;10.10;5.47;;;;;10.10;96882.00;;;;8275834;28;20333;-78
2021/12/31 20:25:28;;;;;;;9.10;5.05;;;;;10.10;96894.00;;;;8274613;28;20916;-79
2021/12/31 20:29:32;;;;;;;11.70;5.40;;;;;10.00;96895.00;;;;8275221;28;20239;-79